createdAt,value
2022-10-09T00:03:06.098Z,12.10
2022-10-09T00:08:08.823Z,9.53
2022-10-09T00:13:13.588Z,8.50
2022-10-09T00:18:18.286Z,9.45
2022-10-09T00:23:21.055Z,10.30
2022-10-09T00:28:27.854Z,14.17
2022-10-09T00:33:30.619Z,9.15
2022-10-09T00:38:33.637Z,11.55
2022-10-09T00:43:43.573Z,8.70
2022-10-09T00:48:46.824Z,7.97
2022-10-09T00:53:51.125Z,8.45
2022-10-09T00:58:58.699Z,11.50
2022-10-09T01:04:01.418Z,12.38
2022-10-09T01:09:10.079Z,12.57
2022-10-09T01:14:22.430Z,9.80
2022-10-09T01:19:45.641Z,10.80
2022-10-09T01:24:54.449Z,9.73
2022-10-09T01:30:01.912Z,11.05
2022-10-09T01:35:06.696Z,11.00
2022-10-09T01:40:11.615Z,9.18
2022-10-09T01:45:16.868Z,9.25
2022-10-09T01:50:26.084Z,12.33
2022-10-09T01:55:37.386Z,13.02
2022-10-09T02:00:46.800Z,11.45
2022-10-09T02:05:52.312Z,10.13
2022-10-09T02:10:57.668Z,11.60
2022-10-09T02:16:07.075Z,11.15
2022-10-09T02:21:14.013Z,12.00
2022-10-09T02:26:16.985Z,11.87
2022-10-09T02:31:26.025Z,12.18
2022-10-09T02:36:29.629Z,10.02
2022-10-09T02:41:32.332Z,15.37
2022-10-09T02:46:38.306Z,12.35
2022-10-09T02:51:41.158Z,13.48
2022-10-09T02:56:43.852Z,12.73
2022-10-09T03:01:48.001Z,10.63
2022-10-09T03:06:50.811Z,10.45
2022-10-09T03:11:53.497Z,11.48
2022-10-09T03:16:57.586Z,10.50
2022-10-09T03:22:00.263Z,14.00
2022-10-09T03:27:02.993Z,12.73
2022-10-09T03:32:07.280Z,12.57
2022-10-09T03:37:10.020Z,13.50
2022-10-09T03:42:12.816Z,10.18
2022-10-09T03:47:16.930Z,8.97
2022-10-09T03:52:19.606Z,10.80
2022-10-09T03:57:22.488Z,7.60
2022-10-09T04:02:26.630Z,11.90
2022-10-09T04:07:29.383Z,10.03
2022-10-09T04:12:32.061Z,9.88
2022-10-09T04:17:36.131Z,8.95
2022-10-09T04:22:38.819Z,14.50
2022-10-09T04:27:41.502Z,9.73
2022-10-09T04:32:48.214Z,12.38
2022-10-09T04:37:51.238Z,7.80
2022-10-09T04:42:53.932Z,9.43
2022-10-09T04:47:58.033Z,10.30
2022-10-09T04:53:00.843Z,12.38
2022-10-09T04:58:03.531Z,8.40
2022-10-09T05:03:07.584Z,9.05
2022-10-09T05:08:10.330Z,9.90
2022-10-09T05:13:13.037Z,9.70
2022-10-09T05:18:17.099Z,10.15
2022-10-09T05:23:19.823Z,12.60
2022-10-09T05:28:22.604Z,9.43
2022-10-09T05:33:26.914Z,5.43
2022-10-09T05:38:30.414Z,9.10
2022-10-09T05:43:35.595Z,12.43
2022-10-09T05:48:42.080Z,10.83
2022-10-09T05:53:45.865Z,15.00
2022-10-09T05:58:52.517Z,24.83
2022-10-09T06:03:58.573Z,15.50
2022-10-09T06:09:01.409Z,18.42
2022-10-09T06:14:06.149Z,11.50
2022-10-09T06:19:13.051Z,8.77
2022-10-09T06:24:23.307Z,11.90
2022-10-09T06:29:30.585Z,10.40
2022-10-09T06:34:34.657Z,9.63
2022-10-09T06:39:37.356Z,10.27
2022-10-09T06:44:41.703Z,11.65
2022-10-09T06:49:45.754Z,12.75
2022-10-09T06:54:48.427Z,11.43
2022-10-09T06:59:51.888Z,11.95
2022-10-09T07:04:55.946Z,11.15
2022-10-09T07:09:58.630Z,13.37
2022-10-09T07:15:01.309Z,9.43
2022-10-09T07:20:05.924Z,19.90
2022-10-09T07:25:11.829Z,23.70
2022-10-09T07:30:14.585Z,14.77
2022-10-09T07:35:18.715Z,16.83
2022-10-09T07:40:21.500Z,14.48
2022-10-09T07:45:24.198Z,14.53
2022-10-09T07:50:28.258Z,15.57
2022-10-09T07:55:30.962Z,14.95
2022-10-09T08:00:34.370Z,11.80
2022-10-09T08:05:38.432Z,14.10
2022-10-09T08:10:41.112Z,15.25
2022-10-09T08:15:44.667Z,12.85
2022-10-09T08:20:57.337Z,10.73
2022-10-09T08:26:00.167Z,11.10
2022-10-09T08:31:11.344Z,12.02
2022-10-09T08:36:16.259Z,12.50
2022-10-09T08:41:28.667Z,11.13
2022-10-09T08:46:41.603Z,11.65
2022-10-09T08:51:46.342Z,14.27
2022-10-09T08:56:51.908Z,12.57
2022-10-09T09:02:02.403Z,12.10
2022-10-09T09:07:14.872Z,10.15
2022-10-09T09:12:24.778Z,10.13
2022-10-09T09:17:33.593Z,10.73
2022-10-09T09:22:40.977Z,9.68
2022-10-09T09:27:43.810Z,8.50
2022-10-09T09:32:53.802Z,11.15
2022-10-09T09:37:57.982Z,9.52
2022-10-09T09:43:04.943Z,10.00
2022-10-09T09:48:13.981Z,11.30
2022-10-09T09:53:27.238Z,8.13
2022-10-09T09:58:34.815Z,8.93
2022-10-09T10:03:37.546Z,9.80
2022-10-09T10:08:41.592Z,7.38
2022-10-09T10:13:49.668Z,7.72
2022-10-09T10:18:54.001Z,8.50
2022-10-09T10:29:14.168Z,7.20
2022-10-09T10:34:22.287Z,10.67
2022-10-09T10:39:33.237Z,7.50
2022-10-09T10:44:48.470Z,7.95
2022-10-09T10:49:51.515Z,6.90
2022-10-09T10:55:06.769Z,7.03
2022-10-09T11:00:12.551Z,5.95
2022-10-09T11:05:27.090Z,7.90
2022-10-09T11:10:37.864Z,8.13
2022-10-09T11:15:50.975Z,8.68
2022-10-09T11:21:03.952Z,8.70
2022-10-09T11:26:20.383Z,9.40
2022-10-09T11:31:32.260Z,6.80
2022-10-09T11:36:40.798Z,8.10
2022-10-09T11:41:47.258Z,6.97
2022-10-09T11:46:57.592Z,8.30
2022-10-09T11:52:08.190Z,7.40
2022-10-09T11:57:15.259Z,8.87
2022-10-09T12:02:28.309Z,13.65
2022-10-09T12:07:35.695Z,7.30
2022-10-09T12:12:39.900Z,9.23
2022-10-09T12:17:49.830Z,8.18
2022-10-09T12:23:24.758Z,7.47
2022-10-09T12:28:28.049Z,10.20
2022-10-09T12:33:37.870Z,5.73
2022-10-09T12:38:40.625Z,6.47
2022-10-09T12:43:47.102Z,5.20
2022-10-09T12:48:49.897Z,6.30
2022-10-09T12:53:53.872Z,6.80
2022-10-09T12:58:58.956Z,6.78
2022-10-09T13:04:04.267Z,6.70
2022-10-09T13:09:09.690Z,7.32
2022-10-09T13:14:28.092Z,7.63
2022-10-09T13:19:33.233Z,4.43
2022-10-09T13:24:36.782Z,6.90
2022-10-09T13:29:40.859Z,9.68
2022-10-09T13:34:44.181Z,6.70
2022-10-09T13:39:47.296Z,6.47
2022-10-09T13:44:51.390Z,6.10
2022-10-09T13:49:54.087Z,5.88
2022-10-09T13:54:56.771Z,6.17
2022-10-09T14:00:01.158Z,7.00
2022-10-09T14:05:04.036Z,7.95
2022-10-09T14:10:07.582Z,5.73
2022-10-09T14:15:12.249Z,5.03
2022-10-09T14:20:15.540Z,5.90
2022-10-09T14:25:18.310Z,6.60
2022-10-09T14:30:22.610Z,6.60
2022-10-09T14:35:25.635Z,5.75
2022-10-09T14:40:28.357Z,6.55
2022-10-09T14:45:33.846Z,5.97
2022-10-09T14:50:37.410Z,6.45
2022-10-09T14:55:40.315Z,10.43
2022-10-09T15:00:47.861Z,7.73
2022-10-09T15:05:50.630Z,6.50
2022-10-09T15:10:53.605Z,5.93
2022-10-09T15:16:00.998Z,6.68
2022-10-09T15:21:04.141Z,5.93
2022-10-09T15:26:08.292Z,5.60
2022-10-09T15:31:22.003Z,6.65
2022-10-09T15:36:25.879Z,7.80
2022-10-09T15:41:30.410Z,6.78
2022-10-09T15:46:35.045Z,6.60
2022-10-09T15:51:37.793Z,7.03
2022-10-09T15:56:41.382Z,7.07
2022-10-09T16:01:45.576Z,6.43
2022-10-09T16:06:48.426Z,4.93
2022-10-09T16:11:51.169Z,6.53
2022-10-09T16:16:55.284Z,8.18
2022-10-09T16:21:58.243Z,8.10
2022-10-09T16:27:01.057Z,6.13
2022-10-09T16:32:05.122Z,7.80
2022-10-09T16:37:07.962Z,6.90
2022-10-09T16:42:10.688Z,7.47
2022-10-09T16:47:15.057Z,6.67
2022-10-09T16:52:17.819Z,8.63
2022-10-09T16:57:20.597Z,7.20
2022-10-09T17:02:24.667Z,9.30
2022-10-09T17:07:27.442Z,7.47
2022-10-09T17:12:30.805Z,8.48
2022-10-09T17:17:34.873Z,9.73
2022-10-09T17:22:37.560Z,9.25
2022-10-09T17:27:40.275Z,9.88
2022-10-09T17:32:44.359Z,16.57
2022-10-09T17:37:47.054Z,17.87
2022-10-09T17:42:50.026Z,22.83
2022-10-09T17:47:54.305Z,17.05
2022-10-09T17:52:57.159Z,11.57
2022-10-09T17:58:00.428Z,6.78
2022-10-09T18:03:04.763Z,7.47
2022-10-09T18:08:07.468Z,7.87
2022-10-09T18:13:11.467Z,9.07
2022-10-09T18:18:15.593Z,8.02
2022-10-09T18:23:22.404Z,8.90
2022-10-09T18:33:29.710Z,8.77
2022-10-09T18:38:32.495Z,7.32
2022-10-09T18:43:35.209Z,7.40
2022-10-09T18:48:41.744Z,8.95
2022-10-09T18:53:48.449Z,6.32
2022-10-09T18:58:53.532Z,9.57
2022-10-09T19:03:57.605Z,7.22
2022-10-09T19:09:01.313Z,9.38
2022-10-09T19:14:04.202Z,8.97
2022-10-09T19:19:08.497Z,9.63
2022-10-09T19:24:12.029Z,9.88
2022-10-09T19:29:14.729Z,7.65
2022-10-09T19:34:19.320Z,6.53
2022-10-09T19:39:22.258Z,6.75
2022-10-09T19:44:24.967Z,6.88
2022-10-09T19:49:31.589Z,10.17
2022-10-09T19:54:35.111Z,8.55
2022-10-09T19:59:37.902Z,11.15
2022-10-09T20:04:41.952Z,8.43
2022-10-09T20:09:44.676Z,6.90
2022-10-09T20:14:47.419Z,9.02
2022-10-09T20:19:51.657Z,7.20
2022-10-09T20:24:54.441Z,7.43
2022-10-09T20:29:57.210Z,8.75
2022-10-09T20:35:02.441Z,7.60
2022-10-09T20:40:05.674Z,9.50
2022-10-09T20:45:08.966Z,6.63
2022-10-09T20:50:13.024Z,9.30
2022-10-09T20:55:15.921Z,8.87
2022-10-09T21:00:18.839Z,8.83
2022-10-09T21:05:22.962Z,11.20
2022-10-09T21:10:25.671Z,8.38
2022-10-09T21:15:28.651Z,10.23
2022-10-09T21:20:32.682Z,7.25
2022-10-09T21:25:35.482Z,7.53
2022-10-09T21:30:41.574Z,7.27
2022-10-09T21:35:47.974Z,7.95
2022-10-09T21:40:51.134Z,6.35
2022-10-09T21:45:53.813Z,8.23
2022-10-09T21:50:59.164Z,6.57
2022-10-09T21:56:03.817Z,10.38
2022-10-09T22:01:07.229Z,8.80
2022-10-09T22:06:18.422Z,12.60
2022-10-09T22:11:21.790Z,8.85
2022-10-09T22:16:24.788Z,7.28
2022-10-09T22:21:28.862Z,7.27
2022-10-09T22:26:31.836Z,7.15
2022-10-09T22:31:34.509Z,6.00
2022-10-09T22:36:38.592Z,7.73
2022-10-09T22:41:41.290Z,8.77
2022-10-09T22:46:45.012Z,6.65
2022-10-09T22:51:49.079Z,7.28
2022-10-09T22:56:51.747Z,7.63
2022-10-09T23:01:57.040Z,7.85
2022-10-09T23:07:01.740Z,8.02
2022-10-09T23:12:04.711Z,9.07
2022-10-09T23:17:07.386Z,9.45
2022-10-09T23:22:11.434Z,9.43
2022-10-09T23:27:14.128Z,7.60
2022-10-09T23:32:16.819Z,8.63
2022-10-09T23:37:20.861Z,11.23
2022-10-09T23:42:23.530Z,8.40
2022-10-09T23:47:26.209Z,8.67
2022-10-09T23:52:30.229Z,8.45
2022-10-09T23:57:34.750Z,8.57
